KLAA/LAA METAR and TAF weather

Enter ICAO airport designator
Station Type Date Time Source
KLAA METAR 2019/08/18 08:53 UTC NOAA

KLAA 180853Z AUTO 20007KT 10SM CLR 16/11 A2987 RMK AO2 SLP060 T01560111 53008


Station Type Date Time Source
KLAA Decoded METAR 2019/08/18 08:53 UTC NOAA

Station name not available
Aug 18, 2019 - 04:53 AM EDT / 2019.08.18 0853 UTC
Wind: from the SSW (200 degrees) at 8 MPH (7 KT):0
Visibility: 10 mile(s):0
Sky conditions: clear
Temperature: 60.1 F (15.6 C)
Dew Point: 52.0 F (11.1 C)
Relative Humidity: 74%
Pressure (altimeter): 29.87 in. Hg (1011 hPa)
Pressure tendency: 0.02 inches (0.8 hPa) higher than three hours ago
ob: KLAA 180853Z AUTO 20007KT 10SM CLR 16/11 A2987 RMK AO2 SLP060 T01560111 53008
cycle: 9

Station Type Date Time Source
KLAA TAF UTC NOAA

Error!

Example: see airport list